This is the latest recevied weather packets stored in our database for station/object WX3I. If no packets are shown the sender has not sent any weather packets the latest 10 day(s).
| Time | Temp. | Humidity | Pressure | Rain* | Wind** | Luminosity | Snow |
|---|---|---|---|---|---|---|---|
| 1777710604 | 9.44° C | 84% | 1013.2 hPa | 0 mm | - | 0 W/m² | - |
| 1777707004 | 10° C | 80% | 1013.4 hPa | 0 mm | - | 0 W/m² | - |
| 1777706104 | 10.56° C | 79% | 1013.4 hPa | 0 mm | - | 0 W/m² | - |
| 1777705805 | 10.56° C | 79% | 1013.6 hPa | 0 mm | - | 0 W/m² | - |
| 1777702504 | 10.56° C | 79% | 1013.7 hPa | 0 mm | - | 0 W/m² | - |
| 1777702204 | 10.56° C | 77% | 1013.7 hPa | 0 mm | - | 0 W/m² | - |
| 1777701304 | 11.11° C | 75% | 1013.5 hPa | 0 mm | - | 0 W/m² | - |
| 1777700405 | 11.11° C | 73% | 1013.7 hPa | 0 mm | - | 0 W/m² | - |
| 1777699204 | 10.56° C | 75% | 1014 hPa | 0 mm | - | 0 W/m² | - |
| 1777696204 | 11.67° C | 71% | 1013.8 hPa | 0 mm | - | 0 W/m² | - |
| 1777694405 | 11.67° C | 70% | 1013.5 hPa | 0 mm | - | 0 W/m² | - |
| 1777692604 | 11.67° C | 67% | 1013.2 hPa | 0 mm | - | 0 W/m² | - |
| 1777691404 | 11.67° C | 65% | 1013.4 hPa | 0 mm | - | 0 W/m² | - |
| 1777691104 | 11.67° C | 64% | 1013.4 hPa | 0 mm | - | 0 W/m² | - |
| 1777690204 | 12.22° C | 63% | 1013.5 hPa | 0 mm | - | 0 W/m² | - |
| 1777688404 | 12.78° C | 59% | 1013.7 hPa | 0 mm | - | 0 W/m² | - |
| 1777688104 | 12.78° C | 58% | 1013.8 hPa | 0 mm | - | 0 W/m² | - |
| 1777686304 | 12.78° C | 55% | 1013.4 hPa | 0 mm | - | 0 W/m² | - |
| 1777685404 | 12.78° C | 54% | 1013.4 hPa | 0 mm | - | 0 W/m² | - |
| 1777683005 | 12.22° C | 54% | 1013.1 hPa | 0 mm | - | 0 W/m² | - |
| 1777682405 | 12.22° C | 54% | 1013 hPa | 0 mm | - | 0 W/m² | - |
| 1777680604 | 13.33° C | 50% | 1012.8 hPa | 0 mm | - | 0 W/m² | - |
| 1777679404 | 14.44° C | 47% | 1012.8 hPa | 0 mm | - | 21 W/m² | - |
| 1777677604 | 15° C | 45% | 1012.3 hPa | 0 mm | - | 87 W/m² | - |
| 1777677304 | 15.56° C | 44% | 1012.2 hPa | 0 mm | - | 104 W/m² | - |
* Rain latest hour (hover to see other rain measurements)
** Current wind speed in m/s (hover to see current wind gust speed)